sensor_id;sensor_type;location;lat;lon;timestamp;P1;durP1;ratioP1;P2;durP2;ratioP2
68579;SDS011;55555;52.136;5.424;2022-08-01T00:00:16;15.20;;;7.38;;
68579;SDS011;55555;52.136;5.424;2022-08-01T00:02:43;13.43;;;6.13;;
68579;SDS011;55555;52.136;5.424;2022-08-01T00:05:10;15.57;;;6.87;;
68579;SDS011;55555;52.136;5.424;2022-08-01T00:07:38;11.65;;;5.00;;
68579;SDS011;55555;52.136;5.424;2022-08-01T00:10:09;13.63;;;6.15;;
68579;SDS011;55555;52.136;5.424;2022-08-01T00:12:39;11.88;;;5.38;;
68579;SDS011;55555;52.136;5.424;2022-08-01T00:15:08;12.88;;;5.45;;
68579;SDS011;55555;52.136;5.424;2022-08-01T00:17:39;14.90;;;5.87;;
68579;SDS011;55555;52.136;5.424;2022-08-01T00:20:07;10.50;;;4.47;;
68579;SDS011;55555;52.136;5.424;2022-08-01T00:22:37;10.13;;;5.78;;
68579;SDS011;55555;52.136;5.424;2022-08-01T00:25:04;10.40;;;4.90;;
68579;SDS011;55555;52.136;5.424;2022-08-01T00:27:32;13.32;;;5.00;;
68579;SDS011;55555;52.136;5.424;2022-08-01T00:30:03;11.87;;;5.07;;
68579;SDS011;55555;52.136;5.424;2022-08-01T00:32:39;10.65;;;4.88;;
68579;SDS011;55555;52.136;5.424;2022-08-01T00:35:08;10.73;;;5.10;;
68579;SDS011;55555;52.136;5.424;2022-08-01T00:37:35;12.70;;;4.78;;
68579;SDS011;55555;52.136;5.424;2022-08-01T00:40:02;13.32;;;5.10;;
68579;SDS011;55555;52.136;5.424;2022-08-01T00:42:30;11.60;;;5.27;;
68579;SDS011;55555;52.136;5.424;2022-08-01T00:44:57;11.80;;;5.35;;
68579;SDS011;55555;52.136;5.424;2022-08-01T00:47:24;16.20;;;5.45;;
68579;SDS011;55555;52.136;5.424;2022-08-01T00:49:51;12.25;;;5.45;;
68579;SDS011;55555;52.136;5.424;2022-08-01T00:52:18;13.05;;;5.25;;
68579;SDS011;55555;52.136;5.424;2022-08-01T00:54:45;11.87;;;5.23;;
68579;SDS011;55555;52.136;5.424;2022-08-01T00:57:12;11.55;;;4.97;;
68579;SDS011;55555;52.136;5.424;2022-08-01T00:59:40;14.25;;;6.22;;
68579;SDS011;55555;52.136;5.424;2022-08-01T01:02:08;11.98;;;5.38;;
68579;SDS011;55555;52.136;5.424;2022-08-01T01:04:40;13.40;;;5.72;;
68579;SDS011;55555;52.136;5.424;2022-08-01T01:10:57;14.32;;;5.70;;
68579;SDS011;55555;52.136;5.424;2022-08-01T01:13:41;14.55;;;6.55;;
68579;SDS011;55555;52.136;5.424;2022-08-01T01:16:30;13.25;;;5.30;;
68579;SDS011;55555;52.136;5.424;2022-08-01T01:19:01;17.10;;;6.88;;
68579;SDS011;55555;52.136;5.424;2022-08-01T01:27:24;14.88;;;6.43;;
68579;SDS011;55555;52.136;5.424;2022-08-01T01:30:13;15.50;;;6.15;;
68579;SDS011;55555;52.136;5.424;2022-08-01T01:32:48;18.77;;;6.70;;
68579;SDS011;55555;52.136;5.424;2022-08-01T01:35:21;15.20;;;6.97;;
68579;SDS011;55555;52.136;5.424;2022-08-01T01:37:57;15.65;;;6.32;;
68579;SDS011;55555;52.136;5.424;2022-08-01T01:40:31;23.00;;;7.47;;
68579;SDS011;55555;52.136;5.424;2022-08-01T01:42:59;13.85;;;6.13;;
68579;SDS011;55555;52.136;5.424;2022-08-01T01:45:26;17.02;;;6.57;;
68579;SDS011;55555;52.136;5.424;2022-08-01T01:47:55;16.10;;;6.60;;
68579;SDS011;55555;52.136;5.424;2022-08-01T01:50:23;14.13;;;6.60;;
68579;SDS011;55555;52.136;5.424;2022-08-01T01:52:52;15.27;;;6.22;;
68579;SDS011;55555;52.136;5.424;2022-08-01T01:55:21;14.23;;;6.60;;
68579;SDS011;55555;52.136;5.424;2022-08-01T01:57:52;19.83;;;6.60;;
68579;SDS011;55555;52.136;5.424;2022-08-01T02:00:22;15.87;;;6.73;;
68579;SDS011;55555;52.136;5.424;2022-08-01T02:02:51;15.80;;;7.20;;
68579;SDS011;55555;52.136;5.424;2022-08-01T02:05:20;19.23;;;7.13;;
68579;SDS011;55555;52.136;5.424;2022-08-01T02:07:48;21.75;;;7.30;;
68579;SDS011;55555;52.136;5.424;2022-08-01T02:10:24;22.58;;;6.93;;
68579;SDS011;55555;52.136;5.424;2022-08-01T02:12:54;17.70;;;7.07;;
68579;SDS011;55555;52.136;5.424;2022-08-01T02:15:24;16.52;;;7.03;;
68579;SDS011;55555;52.136;5.424;2022-08-01T02:17:52;19.67;;;7.60;;
68579;SDS011;55555;52.136;5.424;2022-08-01T02:20:22;23.25;;;7.15;;
68579;SDS011;55555;52.136;5.424;2022-08-01T02:22:53;19.13;;;7.07;;
68579;SDS011;55555;52.136;5.424;2022-08-01T02:25:38;15.03;;;6.73;;
68579;SDS011;55555;52.136;5.424;2022-08-01T02:28:35;21.00;;;6.00;;
68579;SDS011;55555;52.136;5.424;2022-08-01T02:31:23;20.80;;;7.43;;
68579;SDS011;55555;52.136;5.424;2022-08-01T02:33:57;18.95;;;7.20;;
68579;SDS011;55555;52.136;5.424;2022-08-01T02:36:28;15.75;;;6.60;;
68579;SDS011;55555;52.136;5.424;2022-08-01T02:39:09;18.93;;;6.60;;
68579;SDS011;55555;52.136;5.424;2022-08-01T02:41:41;18.80;;;6.97;;
68579;SDS011;55555;52.136;5.424;2022-08-01T02:44:14;17.67;;;7.10;;
68579;SDS011;55555;52.136;5.424;2022-08-01T02:47:00;20.10;;;6.93;;
68579;SDS011;55555;52.136;5.424;2022-08-01T02:49:33;19.77;;;7.15;;
68579;SDS011;55555;52.136;5.424;2022-08-01T02:52:12;15.33;;;6.47;;
68579;SDS011;55555;52.136;5.424;2022-08-01T02:54:42;16.52;;;6.32;;
68579;SDS011;55555;52.136;5.424;2022-08-01T02:57:11;22.25;;;7.80;;
68579;SDS011;55555;52.136;5.424;2022-08-01T02:59:43;21.65;;;6.80;;
68579;SDS011;55555;52.136;5.424;2022-08-01T03:02:11;19.20;;;6.97;;
68579;SDS011;55555;52.136;5.424;2022-08-01T03:04:40;13.80;;;6.67;;
68579;SDS011;55555;52.136;5.424;2022-08-01T03:07:09;24.33;;;7.65;;
68579;SDS011;55555;52.136;5.424;2022-08-01T03:09:42;17.83;;;7.95;;
68579;SDS011;55555;52.136;5.424;2022-08-01T03:12:16;16.70;;;7.63;;
68579;SDS011;55555;52.136;5.424;2022-08-01T03:14:48;22.17;;;7.63;;
68579;SDS011;55555;52.136;5.424;2022-08-01T03:17:18;21.97;;;8.73;;
68579;SDS011;55555;52.136;5.424;2022-08-01T03:19:48;19.15;;;7.32;;
68579;SDS011;55555;52.136;5.424;2022-08-01T03:22:18;24.55;;;7.75;;
68579;SDS011;55555;52.136;5.424;2022-08-01T03:24:51;20.00;;;8.60;;
68579;SDS011;55555;52.136;5.424;2022-08-01T03:27:20;22.40;;;9.13;;
68579;SDS011;55555;52.136;5.424;2022-08-01T03:29:50;14.73;;;7.23;;
68579;SDS011;55555;52.136;5.424;2022-08-01T03:32:19;20.40;;;8.18;;
68579;SDS011;55555;52.136;5.424;2022-08-01T03:34:48;19.13;;;9.32;;
68579;SDS011;55555;52.136;5.424;2022-08-01T03:37:19;19.42;;;7.60;;
68579;SDS011;55555;52.136;5.424;2022-08-01T03:42:38;15.07;;;7.23;;
68579;SDS011;55555;52.136;5.424;2022-08-01T03:45:15;18.27;;;7.80;;
68579;SDS011;55555;52.136;5.424;2022-08-01T03:47:49;20.77;;;8.10;;
68579;SDS011;55555;52.136;5.424;2022-08-01T03:50:24;17.83;;;8.27;;
68579;SDS011;55555;52.136;5.424;2022-08-01T03:52:53;15.77;;;7.35;;
68579;SDS011;55555;52.136;5.424;2022-08-01T03:55:21;16.10;;;7.00;;
68579;SDS011;55555;52.136;5.424;2022-08-01T03:57:49;14.35;;;7.20;;
68579;SDS011;55555;52.136;5.424;2022-08-01T04:00:17;14.63;;;7.25;;
68579;SDS011;55555;52.136;5.424;2022-08-01T04:02:48;13.40;;;6.68;;
68579;SDS011;55555;52.136;5.424;2022-08-01T04:05:16;15.73;;;6.95;;
68579;SDS011;55555;52.136;5.424;2022-08-01T04:07:48;17.03;;;7.70;;
68579;SDS011;55555;52.136;5.424;2022-08-01T04:10:22;17.17;;;8.15;;
68579;SDS011;55555;52.136;5.424;2022-08-01T04:12:50;14.90;;;7.68;;
68579;SDS011;55555;52.136;5.424;2022-08-01T04:15:18;18.80;;;8.35;;
68579;SDS011;55555;52.136;5.424;2022-08-01T04:17:46;15.88;;;7.03;;
68579;SDS011;55555;52.136;5.424;2022-08-01T04:20:14;17.77;;;7.57;;
68579;SDS011;55555;52.136;5.424;2022-08-01T04:22:41;13.10;;;7.18;;
68579;SDS011;55555;52.136;5.424;2022-08-01T04:25:19;16.33;;;7.65;;
68579;SDS011;55555;52.136;5.424;2022-08-01T04:28:01;15.27;;;6.88;;
68579;SDS011;55555;52.136;5.424;2022-08-01T04:30:31;12.40;;;6.95;;
68579;SDS011;55555;52.136;5.424;2022-08-01T04:33:02;15.37;;;7.73;;
68579;SDS011;55555;52.136;5.424;2022-08-01T04:35:33;20.50;;;8.43;;
68579;SDS011;55555;52.136;5.424;2022-08-01T04:38:23;14.70;;;7.25;;
68579;SDS011;55555;52.136;5.424;2022-08-01T04:40:56;12.30;;;6.00;;
68579;SDS011;55555;52.136;5.424;2022-08-01T04:43:33;11.45;;;4.90;;
68579;SDS011;55555;52.136;5.424;2022-08-01T04:46:01;12.07;;;3.80;;
68579;SDS011;55555;52.136;5.424;2022-08-01T04:48:29;7.82;;;3.30;;
68579;SDS011;55555;52.136;5.424;2022-08-01T04:51:00;7.10;;;2.90;;
68579;SDS011;55555;52.136;5.424;2022-08-01T04:53:27;8.13;;;2.70;;
68579;SDS011;55555;52.136;5.424;2022-08-01T04:55:54;8.77;;;2.53;;
68579;SDS011;55555;52.136;5.424;2022-08-01T04:58:21;7.23;;;2.57;;
68579;SDS011;55555;52.136;5.424;2022-08-01T05:00:48;6.32;;;2.60;;
68579;SDS011;55555;52.136;5.424;2022-08-01T05:03:15;5.13;;;2.10;;
68579;SDS011;55555;52.136;5.424;2022-08-01T05:05:42;6.47;;;2.42;;
68579;SDS011;55555;52.136;5.424;2022-08-01T05:08:09;4.65;;;1.95;;
68579;SDS011;55555;52.136;5.424;2022-08-01T05:10:36;5.20;;;2.07;;
68579;SDS011;55555;52.136;5.424;2022-08-01T05:13:04;5.90;;;1.90;;
68579;SDS011;55555;52.136;5.424;2022-08-01T05:15:32;6.28;;;2.67;;
68579;SDS011;55555;52.136;5.424;2022-08-01T05:18:00;6.68;;;2.88;;
68579;SDS011;55555;52.136;5.424;2022-08-01T05:20:27;6.03;;;2.50;;
68579;SDS011;55555;52.136;5.424;2022-08-01T05:22:54;5.53;;;2.20;;
68579;SDS011;55555;52.136;5.424;2022-08-01T05:25:22;5.90;;;2.30;;
68579;SDS011;55555;52.136;5.424;2022-08-01T05:28:09;6.80;;;2.63;;
68579;SDS011;55555;52.136;5.424;2022-08-01T05:30:44;5.18;;;2.17;;
68579;SDS011;55555;52.136;5.424;2022-08-01T05:33:11;5.45;;;2.67;;
68579;SDS011;55555;52.136;5.424;2022-08-01T05:35:38;6.33;;;2.37;;
68579;SDS011;55555;52.136;5.424;2022-08-01T05:38:14;6.32;;;2.50;;
68579;SDS011;55555;52.136;5.424;2022-08-01T05:40:42;6.60;;;2.70;;
68579;SDS011;55555;52.136;5.424;2022-08-01T05:43:09;5.90;;;2.83;;
68579;SDS011;55555;52.136;5.424;2022-08-01T05:45:36;5.82;;;2.35;;
68579;SDS011;55555;52.136;5.424;2022-08-01T05:48:02;6.47;;;2.60;;
68579;SDS011;55555;52.136;5.424;2022-08-01T05:50:30;6.45;;;2.60;;
68579;SDS011;55555;52.136;5.424;2022-08-01T05:52:57;5.38;;;2.20;;
68579;SDS011;55555;52.136;5.424;2022-08-01T05:55:24;6.13;;;2.47;;
68579;SDS011;55555;52.136;5.424;2022-08-01T05:57:51;6.90;;;2.78;;
68579;SDS011;55555;52.136;5.424;2022-08-01T06:00:18;5.90;;;2.83;;
68579;SDS011;55555;52.136;5.424;2022-08-01T06:02:45;9.85;;;2.63;;
68579;SDS011;55555;52.136;5.424;2022-08-01T06:05:12;6.18;;;2.80;;
68579;SDS011;55555;52.136;5.424;2022-08-01T06:07:39;10.32;;;2.70;;
68579;SDS011;55555;52.136;5.424;2022-08-01T06:10:06;6.65;;;2.72;;
68579;SDS011;55555;52.136;5.424;2022-08-01T06:12:34;6.87;;;2.87;;
68579;SDS011;55555;52.136;5.424;2022-08-01T06:15:03;9.02;;;2.80;;
68579;SDS011;55555;52.136;5.424;2022-08-01T06:17:31;7.20;;;3.20;;
68579;SDS011;55555;52.136;5.424;2022-08-01T06:19:59;5.82;;;2.55;;
68579;SDS011;55555;52.136;5.424;2022-08-01T06:22:26;7.47;;;2.70;;
68579;SDS011;55555;52.136;5.424;2022-08-01T06:24:53;7.33;;;2.80;;
68579;SDS011;55555;52.136;5.424;2022-08-01T06:27:20;7.35;;;2.92;;
68579;SDS011;55555;52.136;5.424;2022-08-01T06:29:48;8.13;;;3.20;;
68579;SDS011;55555;52.136;5.424;2022-08-01T06:32:19;6.95;;;2.65;;
68579;SDS011;55555;52.136;5.424;2022-08-01T06:34:52;6.82;;;2.95;;
68579;SDS011;55555;52.136;5.424;2022-08-01T06:37:20;6.80;;;2.63;;
68579;SDS011;55555;52.136;5.424;2022-08-01T06:39:48;10.02;;;3.10;;
68579;SDS011;55555;52.136;5.424;2022-08-01T06:42:15;6.00;;;2.90;;
68579;SDS011;55555;52.136;5.424;2022-08-01T06:44:43;8.73;;;2.93;;
68579;SDS011;55555;52.136;5.424;2022-08-01T06:47:10;7.97;;;3.20;;
68579;SDS011;55555;52.136;5.424;2022-08-01T06:49:37;8.55;;;3.08;;
68579;SDS011;55555;52.136;5.424;2022-08-01T06:52:04;8.20;;;3.28;;
68579;SDS011;55555;52.136;5.424;2022-08-01T06:54:31;11.45;;;3.75;;
68579;SDS011;55555;52.136;5.424;2022-08-01T06:56:58;7.47;;;3.60;;
68579;SDS011;55555;52.136;5.424;2022-08-01T06:59:25;6.18;;;3.60;;
68579;SDS011;55555;52.136;5.424;2022-08-01T07:01:52;8.23;;;3.65;;
68579;SDS011;55555;52.136;5.424;2022-08-01T07:04:19;8.82;;;3.95;;
68579;SDS011;55555;52.136;5.424;2022-08-01T07:06:46;12.85;;;4.30;;
68579;SDS011;55555;52.136;5.424;2022-08-01T07:09:13;10.33;;;4.37;;
68579;SDS011;55555;52.136;5.424;2022-08-01T07:11:40;19.35;;;4.00;;
68579;SDS011;55555;52.136;5.424;2022-08-01T07:14:07;9.30;;;4.00;;
68579;SDS011;55555;52.136;5.424;2022-08-01T07:16:34;8.48;;;4.15;;
68579;SDS011;55555;52.136;5.424;2022-08-01T07:19:01;10.30;;;4.50;;
68579;SDS011;55555;52.136;5.424;2022-08-01T07:21:28;12.03;;;5.27;;
68579;SDS011;55555;52.136;5.424;2022-08-01T07:24:06;11.35;;;4.70;;
68579;SDS011;55555;52.136;5.424;2022-08-01T07:26:39;15.13;;;4.68;;
68579;SDS011;55555;52.136;5.424;2022-08-01T07:29:26;10.43;;;4.75;;
68579;SDS011;55555;52.136;5.424;2022-08-01T07:31:54;12.38;;;4.80;;
68579;SDS011;55555;52.136;5.424;2022-08-01T07:34:23;13.73;;;5.50;;
68579;SDS011;55555;52.136;5.424;2022-08-01T07:36:51;14.13;;;4.43;;
68579;SDS011;55555;52.136;5.424;2022-08-01T07:39:19;13.48;;;4.70;;
68579;SDS011;55555;52.136;5.424;2022-08-01T07:41:47;13.40;;;4.65;;
68579;SDS011;55555;52.136;5.424;2022-08-01T07:44:33;12.35;;;4.85;;
68579;SDS011;55555;52.136;5.424;2022-08-01T07:47:01;17.30;;;4.63;;
68579;SDS011;55555;52.136;5.424;2022-08-01T07:49:28;18.20;;;5.03;;
68579;SDS011;55555;52.136;5.424;2022-08-01T07:51:56;14.52;;;4.43;;
68579;SDS011;55555;52.136;5.424;2022-08-01T07:54:29;20.45;;;5.53;;
68579;SDS011;55555;52.136;5.424;2022-08-01T07:57:01;17.50;;;4.57;;
68579;SDS011;55555;52.136;5.424;2022-08-01T07:59:29;16.47;;;4.90;;
68579;SDS011;55555;52.136;5.424;2022-08-01T08:01:56;17.13;;;5.40;;
68579;SDS011;55555;52.136;5.424;2022-08-01T08:04:24;18.52;;;5.60;;
68579;SDS011;55555;52.136;5.424;2022-08-01T08:06:53;28.63;;;6.15;;
68579;SDS011;55555;52.136;5.424;2022-08-01T08:09:20;17.95;;;4.78;;
68579;SDS011;55555;52.136;5.424;2022-08-01T08:11:47;25.93;;;6.00;;
68579;SDS011;55555;52.136;5.424;2022-08-01T08:14:16;21.23;;;5.03;;
68579;SDS011;55555;52.136;5.424;2022-08-01T08:16:44;19.75;;;5.47;;
68579;SDS011;55555;52.136;5.424;2022-08-01T08:19:11;19.35;;;5.32;;
68579;SDS011;55555;52.136;5.424;2022-08-01T08:21:38;19.95;;;4.25;;
68579;SDS011;55555;52.136;5.424;2022-08-01T08:24:07;19.87;;;4.83;;
68579;SDS011;55555;52.136;5.424;2022-08-01T08:26:56;17.60;;;3.92;;
68579;SDS011;55555;52.136;5.424;2022-08-01T08:29:26;19.58;;;4.85;;
68579;SDS011;55555;52.136;5.424;2022-08-01T08:31:56;16.52;;;4.22;;
68579;SDS011;55555;52.136;5.424;2022-08-01T08:34:23;15.52;;;4.57;;
68579;SDS011;55555;52.136;5.424;2022-08-01T08:36:52;19.63;;;4.73;;
68579;SDS011;55555;52.136;5.424;2022-08-01T08:39:22;18.65;;;4.18;;
68579;SDS011;55555;52.136;5.424;2022-08-01T08:41:49;21.23;;;5.03;;
68579;SDS011;55555;52.136;5.424;2022-08-01T08:44:17;17.27;;;4.38;;
68579;SDS011;55555;52.136;5.424;2022-08-01T08:46:47;17.58;;;3.75;;
68579;SDS011;55555;52.136;5.424;2022-08-01T08:49:24;12.10;;;3.23;;
68579;SDS011;55555;52.136;5.424;2022-08-01T08:52:02;16.77;;;4.45;;
68579;SDS011;55555;52.136;5.424;2022-08-01T08:54:34;15.88;;;3.42;;
68579;SDS011;55555;52.136;5.424;2022-08-01T08:57:05;13.88;;;3.63;;
68579;SDS011;55555;52.136;5.424;2022-08-01T08:59:32;17.05;;;3.75;;
68579;SDS011;55555;52.136;5.424;2022-08-01T09:02:00;13.50;;;3.67;;
68579;SDS011;55555;52.136;5.424;2022-08-01T09:04:27;14.27;;;3.78;;
68579;SDS011;55555;52.136;5.424;2022-08-01T09:06:54;17.90;;;3.83;;
68579;SDS011;55555;52.136;5.424;2022-08-01T09:09:21;15.05;;;3.28;;
68579;SDS011;55555;52.136;5.424;2022-08-01T09:11:49;14.32;;;3.50;;
68579;SDS011;55555;52.136;5.424;2022-08-01T09:14:23;11.13;;;2.90;;
68579;SDS011;55555;52.136;5.424;2022-08-01T09:17:03;12.50;;;2.72;;
68579;SDS011;55555;52.136;5.424;2022-08-01T09:19:39;12.68;;;2.72;;
68579;SDS011;55555;52.136;5.424;2022-08-01T09:22:20;11.77;;;2.70;;
68579;SDS011;55555;52.136;5.424;2022-08-01T09:25:00;14.20;;;3.42;;
68579;SDS011;55555;52.136;5.424;2022-08-01T09:27:33;12.43;;;2.80;;
68579;SDS011;55555;52.136;5.424;2022-08-01T09:30:08;9.55;;;2.38;;
68579;SDS011;55555;52.136;5.424;2022-08-01T09:32:55;17.10;;;3.08;;
68579;SDS011;55555;52.136;5.424;2022-08-01T09:35:43;10.75;;;3.33;;
68579;SDS011;55555;52.136;5.424;2022-08-01T09:38:19;10.77;;;2.85;;
68579;SDS011;55555;52.136;5.424;2022-08-01T09:40:54;12.33;;;2.57;;
68579;SDS011;55555;52.136;5.424;2022-08-01T09:43:28;13.15;;;3.00;;
68579;SDS011;55555;52.136;5.424;2022-08-01T09:45:57;13.88;;;2.63;;
68579;SDS011;55555;52.136;5.424;2022-08-01T09:48:28;9.27;;;2.60;;
68579;SDS011;55555;52.136;5.424;2022-08-01T09:50:58;11.50;;;2.50;;
68579;SDS011;55555;52.136;5.424;2022-08-01T09:53:42;10.60;;;2.40;;
68579;SDS011;55555;52.136;5.424;2022-08-01T09:56:18;9.02;;;2.60;;
68579;SDS011;55555;52.136;5.424;2022-08-01T09:58:48;10.10;;;2.55;;
68579;SDS011;55555;52.136;5.424;2022-08-01T10:01:26;10.50;;;2.22;;
68579;SDS011;55555;52.136;5.424;2022-08-01T10:04:07;8.80;;;2.35;;
68579;SDS011;55555;52.136;5.424;2022-08-01T10:06:41;8.87;;;1.97;;
68579;SDS011;55555;52.136;5.424;2022-08-01T10:09:12;10.98;;;2.15;;
68579;SDS011;55555;52.136;5.424;2022-08-01T10:11:42;7.95;;;1.90;;
68579;SDS011;55555;52.136;5.424;2022-08-01T10:14:10;9.65;;;2.13;;
68579;SDS011;55555;52.136;5.424;2022-08-01T10:16:43;8.50;;;2.20;;
68579;SDS011;55555;52.136;5.424;2022-08-01T10:19:20;10.00;;;2.03;;
68579;SDS011;55555;52.136;5.424;2022-08-01T10:21:54;6.38;;;1.52;;
68579;SDS011;55555;52.136;5.424;2022-08-01T10:24:26;8.52;;;1.70;;
68579;SDS011;55555;52.136;5.424;2022-08-01T10:26:59;10.65;;;2.10;;
68579;SDS011;55555;52.136;5.424;2022-08-01T10:29:35;9.43;;;2.30;;
68579;SDS011;55555;52.136;5.424;2022-08-01T10:32:24;8.90;;;1.77;;
68579;SDS011;55555;52.136;5.424;2022-08-01T10:34:54;9.73;;;1.88;;
68579;SDS011;55555;52.136;5.424;2022-08-01T10:37:23;11.32;;;2.15;;
68579;SDS011;55555;52.136;5.424;2022-08-01T10:39:52;10.82;;;2.13;;
68579;SDS011;55555;52.136;5.424;2022-08-01T10:42:41;7.95;;;2.47;;
68579;SDS011;55555;52.136;5.424;2022-08-01T10:45:12;9.47;;;2.03;;
68579;SDS011;55555;52.136;5.424;2022-08-01T10:50:47;11.93;;;2.10;;
68579;SDS011;55555;52.136;5.424;2022-08-01T10:53:19;11.25;;;2.00;;
68579;SDS011;55555;52.136;5.424;2022-08-01T10:56:08;9.48;;;2.22;;
68579;SDS011;55555;52.136;5.424;2022-08-01T10:58:41;8.43;;;2.20;;
68579;SDS011;55555;52.136;5.424;2022-08-01T11:01:14;9.43;;;2.53;;
68579;SDS011;55555;52.136;5.424;2022-08-01T11:03:59;14.77;;;2.72;;
68579;SDS011;55555;52.136;5.424;2022-08-01T11:09:00;12.38;;;2.53;;
68579;SDS011;55555;52.136;5.424;2022-08-01T11:14:32;12.73;;;2.50;;
68579;SDS011;55555;52.136;5.424;2022-08-01T11:17:34;11.95;;;2.70;;
68579;SDS011;55555;52.136;5.424;2022-08-01T11:20:10;12.70;;;2.53;;
68579;SDS011;55555;52.136;5.424;2022-08-01T11:28:24;14.68;;;2.67;;
68579;SDS011;55555;52.136;5.424;2022-08-01T11:38:47;8.23;;;2.03;;
68579;SDS011;55555;52.136;5.424;2022-08-01T11:41:23;10.13;;;2.53;;
68579;SDS011;55555;52.136;5.424;2022-08-01T11:44:22;11.38;;;2.00;;
68579;SDS011;55555;52.136;5.424;2022-08-01T11:47:06;6.85;;;2.13;;
68579;SDS011;55555;52.136;5.424;2022-08-01T11:52:18;9.27;;;1.70;;
68579;SDS011;55555;52.136;5.424;2022-08-01T11:55:07;10.65;;;2.42;;
68579;SDS011;55555;52.136;5.424;2022-08-01T11:57:37;9.95;;;1.92;;
68579;SDS011;55555;52.136;5.424;2022-08-01T12:00:14;9.38;;;2.17;;
68579;SDS011;55555;52.136;5.424;2022-08-01T12:02:44;8.00;;;1.48;;
68579;SDS011;55555;52.136;5.424;2022-08-01T12:05:13;8.50;;;1.70;;
68579;SDS011;55555;52.136;5.424;2022-08-01T12:07:50;11.50;;;1.58;;
68579;SDS011;55555;52.136;5.424;2022-08-01T12:10:20;8.48;;;1.83;;
68579;SDS011;55555;52.136;5.424;2022-08-01T12:12:50;5.80;;;1.80;;
68579;SDS011;55555;52.136;5.424;2022-08-01T12:15:21;9.63;;;2.30;;
68579;SDS011;55555;52.136;5.424;2022-08-01T12:17:51;9.17;;;1.73;;
68579;SDS011;55555;52.136;5.424;2022-08-01T12:20:29;7.93;;;1.63;;
68579;SDS011;55555;52.136;5.424;2022-08-01T12:23:01;7.13;;;1.60;;
68579;SDS011;55555;52.136;5.424;2022-08-01T12:25:34;5.63;;;1.35;;
68579;SDS011;55555;52.136;5.424;2022-08-01T12:28:03;5.20;;;1.30;;
68579;SDS011;55555;52.136;5.424;2022-08-01T12:30:35;8.30;;;1.77;;
68579;SDS011;55555;52.136;5.424;2022-08-01T12:33:04;7.25;;;1.58;;
68579;SDS011;55555;52.136;5.424;2022-08-01T12:35:33;7.15;;;1.48;;
68579;SDS011;55555;52.136;5.424;2022-08-01T12:38:06;7.10;;;1.60;;
68579;SDS011;55555;52.136;5.424;2022-08-01T12:40:52;5.07;;;1.48;;
68579;SDS011;55555;52.136;5.424;2022-08-01T12:43:21;7.23;;;1.37;;
68579;SDS011;55555;52.136;5.424;2022-08-01T12:45:54;5.95;;;1.27;;
68579;SDS011;55555;52.136;5.424;2022-08-01T12:48:26;6.75;;;1.25;;
68579;SDS011;55555;52.136;5.424;2022-08-01T12:50:54;6.28;;;1.40;;
68579;SDS011;55555;52.136;5.424;2022-08-01T12:53:24;5.35;;;1.58;;
68579;SDS011;55555;52.136;5.424;2022-08-01T12:56:05;9.20;;;1.53;;
68579;SDS011;55555;52.136;5.424;2022-08-01T12:58:33;5.75;;;1.45;;
68579;SDS011;55555;52.136;5.424;2022-08-01T13:01:04;8.68;;;1.42;;
68579;SDS011;55555;52.136;5.424;2022-08-01T13:03:36;6.88;;;1.20;;
68579;SDS011;55555;52.136;5.424;2022-08-01T13:06:11;9.73;;;1.80;;
68579;SDS011;55555;52.136;5.424;2022-08-01T13:08:41;8.23;;;1.47;;
68579;SDS011;55555;52.136;5.424;2022-08-01T13:11:10;8.38;;;1.58;;
68579;SDS011;55555;52.136;5.424;2022-08-01T13:13:45;7.20;;;1.38;;
68579;SDS011;55555;52.136;5.424;2022-08-01T13:16:15;6.28;;;1.10;;
68579;SDS011;55555;52.136;5.424;2022-08-01T13:18:59;4.28;;;1.20;;
68579;SDS011;55555;52.136;5.424;2022-08-01T13:21:27;5.57;;;1.03;;
68579;SDS011;55555;52.136;5.424;2022-08-01T13:24:16;6.55;;;1.02;;
68579;SDS011;55555;52.136;5.424;2022-08-01T13:26:55;4.45;;;1.23;;
68579;SDS011;55555;52.136;5.424;2022-08-01T13:29:30;5.82;;;1.20;;
68579;SDS011;55555;52.136;5.424;2022-08-01T13:35:03;6.20;;;1.30;;
68579;SDS011;55555;52.136;5.424;2022-08-01T13:37:33;6.57;;;1.50;;
68579;SDS011;55555;52.136;5.424;2022-08-01T13:40:04;5.70;;;1.52;;
68579;SDS011;55555;52.136;5.424;2022-08-01T13:42:33;6.50;;;1.40;;
68579;SDS011;55555;52.136;5.424;2022-08-01T13:45:01;5.82;;;1.42;;
68579;SDS011;55555;52.136;5.424;2022-08-01T13:47:40;7.67;;;1.43;;
68579;SDS011;55555;52.136;5.424;2022-08-01T13:50:29;8.48;;;1.63;;
68579;SDS011;55555;52.136;5.424;2022-08-01T13:52:57;4.70;;;1.23;;
68579;SDS011;55555;52.136;5.424;2022-08-01T13:55:24;4.90;;;1.27;;
68579;SDS011;55555;52.136;5.424;2022-08-01T13:57:59;4.00;;;1.25;;
68579;SDS011;55555;52.136;5.424;2022-08-01T14:00:26;3.53;;;1.10;;
68579;SDS011;55555;52.136;5.424;2022-08-01T14:02:53;4.45;;;1.00;;
68579;SDS011;55555;52.136;5.424;2022-08-01T14:05:19;3.60;;;1.00;;
68579;SDS011;55555;52.136;5.424;2022-08-01T14:07:46;6.25;;;1.23;;
68579;SDS011;55555;52.136;5.424;2022-08-01T14:10:14;4.25;;;1.17;;
68579;SDS011;55555;52.136;5.424;2022-08-01T14:12:45;3.83;;;0.93;;
68579;SDS011;55555;52.136;5.424;2022-08-01T14:15:14;6.90;;;1.45;;
68579;SDS011;55555;52.136;5.424;2022-08-01T14:18:01;4.30;;;1.00;;
68579;SDS011;55555;52.136;5.424;2022-08-01T14:20:31;4.38;;;1.30;;
68579;SDS011;55555;52.136;5.424;2022-08-01T14:22:58;5.57;;;1.25;;
68579;SDS011;55555;52.136;5.424;2022-08-01T14:25:25;5.40;;;1.20;;
68579;SDS011;55555;52.136;5.424;2022-08-01T14:28:12;5.75;;;1.45;;
68579;SDS011;55555;52.136;5.424;2022-08-01T14:30:39;6.70;;;1.15;;
68579;SDS011;55555;52.136;5.424;2022-08-01T14:33:10;7.07;;;1.48;;
68579;SDS011;55555;52.136;5.424;2022-08-01T14:35:38;5.05;;;1.20;;
68579;SDS011;55555;52.136;5.424;2022-08-01T14:38:26;5.03;;;1.37;;
68579;SDS011;55555;52.136;5.424;2022-08-01T14:40:56;7.07;;;1.10;;
68579;SDS011;55555;52.136;5.424;2022-08-01T14:43:25;3.65;;;1.08;;
68579;SDS011;55555;52.136;5.424;2022-08-01T14:45:58;5.53;;;1.45;;
68579;SDS011;55555;52.136;5.424;2022-08-01T14:48:27;5.45;;;1.30;;
68579;SDS011;55555;52.136;5.424;2022-08-01T14:50:55;6.00;;;1.10;;
68579;SDS011;55555;52.136;5.424;2022-08-01T14:53:23;5.15;;;1.23;;
68579;SDS011;55555;52.136;5.424;2022-08-01T14:55:51;4.97;;;1.00;;
68579;SDS011;55555;52.136;5.424;2022-08-01T14:58:17;4.75;;;1.20;;
68579;SDS011;55555;52.136;5.424;2022-08-01T15:00:44;6.40;;;1.15;;
68579;SDS011;55555;52.136;5.424;2022-08-01T15:03:12;6.37;;;1.23;;
68579;SDS011;55555;52.136;5.424;2022-08-01T15:05:39;6.72;;;1.33;;
68579;SDS011;55555;52.136;5.424;2022-08-01T15:08:06;5.93;;;1.15;;
68579;SDS011;55555;52.136;5.424;2022-08-01T15:10:33;4.18;;;1.33;;
68579;SDS011;55555;52.136;5.424;2022-08-01T15:13:00;5.57;;;1.17;;
68579;SDS011;55555;52.136;5.424;2022-08-01T15:15:28;5.77;;;1.23;;
68579;SDS011;55555;52.136;5.424;2022-08-01T15:17:55;6.30;;;0.88;;
68579;SDS011;55555;52.136;5.424;2022-08-01T15:20:23;4.53;;;1.10;;
68579;SDS011;55555;52.136;5.424;2022-08-01T15:22:51;4.60;;;1.23;;
68579;SDS011;55555;52.136;5.424;2022-08-01T15:25:18;5.13;;;1.30;;
68579;SDS011;55555;52.136;5.424;2022-08-01T15:27:46;6.40;;;1.07;;
68579;SDS011;55555;52.136;5.424;2022-08-01T15:30:13;4.07;;;1.27;;
68579;SDS011;55555;52.136;5.424;2022-08-01T15:32:40;5.70;;;0.90;;
68579;SDS011;55555;52.136;5.424;2022-08-01T15:35:07;5.07;;;1.00;;
68579;SDS011;55555;52.136;5.424;2022-08-01T15:37:36;5.85;;;1.17;;
68579;SDS011;55555;52.136;5.424;2022-08-01T15:40:10;4.00;;;1.00;;
68579;SDS011;55555;52.136;5.424;2022-08-01T15:42:38;4.80;;;1.10;;
68579;SDS011;55555;52.136;5.424;2022-08-01T15:45:05;6.72;;;1.40;;